Time;durP1;ratioP1;P1;durP2;ratioP2;P2;SDS_P1;SDS_P2;PMS_P1;PMS_P2;Temp;Humidity;BMP_temperature;BMP_pressure;BME280_temperature;BME280_humidity;BME280_pressure;Samples;Min_cycle;Max_cycle;Signal;HPM_P1;HPM_P2
2022/05/08 00:00:30;;;;;;;13.63;8.35;;;;;;;;;;5003416;28;20183;-80
2022/05/08 00:02:57;;;;;;;10.60;7.57;;;;;;;;;;5000338;28;20549;-81
2022/05/08 00:05:24;;;;;;;10.55;7.20;;;;;;;;;;4998134;28;20183;-81
2022/05/08 00:07:50;;;;;;;11.75;7.07;;;;;;;;;;5000070;28;20233;-80
2022/05/08 00:10:16;;;;;;;9.07;6.90;;;;;;;;;;4985664;28;20214;-80
2022/05/08 00:12:42;;;;;;;8.95;6.60;;;;;;;;;;4985478;28;20499;-80
2022/05/08 00:15:08;;;;;;;10.37;8.30;;;;;;;;;;4986096;28;20171;-81
2022/05/08 00:17:34;;;;;;;11.38;7.55;;;;;;;;;;4999244;28;20477;-81
2022/05/08 00:20:01;;;;;;;8.10;6.75;;;;;;;;;;4984938;28;20282;-80
2022/05/08 00:22:27;;;;;;;9.73;7.20;;;;;;;;;;4996073;28;20191;-81
2022/05/08 00:24:53;;;;;;;9.45;6.97;;;;;;;;;;4977433;28;20191;-80
2022/05/08 00:27:21;;;;;;;9.02;7.45;;;;;;;;;;4996525;28;20254;-81
2022/05/08 00:29:46;;;;;;;9.30;6.80;;;;;;;;;;4992640;28;20229;-80
2022/05/08 00:32:13;;;;;;;11.03;7.93;;;;;;;;;;4993827;28;20453;-81
2022/05/08 00:34:39;;;;;;;11.93;7.88;;;;;;;;;;4979912;28;20469;-80
2022/05/08 00:37:08;;;;;;;9.90;7.68;;;;;;;;;;4994199;28;20260;-80
2022/05/08 00:39:34;;;;;;;10.90;7.45;;;;;;;;;;4985958;28;20671;-80
2022/05/08 00:42:00;;;;;;;13.90;8.55;;;;;;;;;;4994156;28;20187;-80
2022/05/08 00:44:26;;;;;;;12.45;8.57;;;;;;;;;;4985910;28;20702;-80
2022/05/08 00:46:52;;;;;;;12.90;8.70;;;;;;;;;;4996250;28;20196;-80
2022/05/08 00:49:18;;;;;;;10.23;7.30;;;;;;;;;;4996536;28;20466;-81
2022/05/08 00:51:48;;;;;;;8.13;6.77;;;;;;;;;;4984901;28;20186;-80
2022/05/08 00:54:15;;;;;;;11.82;8.73;;;;;;;;;;4995560;28;20414;-80
2022/05/08 00:56:41;;;;;;;12.10;8.07;;;;;;;;;;4993301;28;20218;-81
2022/05/08 00:59:07;;;;;;;10.18;7.72;;;;;;;;;;4995639;28;20195;-81
2022/05/08 01:01:33;;;;;;;14.52;9.35;;;;;;;;;;5001419;28;20191;-81
2022/05/08 01:03:59;;;;;;;10.95;9.02;;;;;;;;;;4981161;28;20432;-80
2022/05/08 01:06:27;;;;;;;15.40;9.60;;;;;;;;;;5000886;28;20186;-80
2022/05/08 01:08:54;;;;;;;15.60;10.55;;;;;;;;;;4996949;28;20434;-80
2022/05/08 01:11:21;;;;;;;12.95;9.48;;;;;;;;;;4998605;28;20692;-80
2022/05/08 01:13:47;;;;;;;12.95;9.98;;;;;;;;;;5000174;28;20191;-80
2022/05/08 01:16:14;;;;;;;14.52;9.98;;;;;;;;;;4998683;28;20184;-81
2022/05/08 01:18:41;;;;;;;11.65;9.30;;;;;;;;;;4997658;28;20219;-80
2022/05/08 01:21:10;;;;;;;12.38;8.38;;;;;;;;;;4982180;28;20306;-80
2022/05/08 01:23:37;;;;;;;15.50;9.85;;;;;;;;;;4991241;28;20188;-80
2022/05/08 01:26:03;;;;;;;17.15;10.05;;;;;;;;;;4987704;28;20179;-80
2022/05/08 01:28:29;;;;;;;13.35;9.73;;;;;;;;;;4973043;28;20218;-80
2022/05/08 01:30:56;;;;;;;13.95;9.77;;;;;;;;;;4966888;28;20239;-80
2022/05/08 01:33:23;;;;;;;13.93;10.70;;;;;;;;;;4991371;28;20274;-80
2022/05/08 01:35:49;;;;;;;13.80;9.40;;;;;;;;;;4972478;28;20195;-80
2022/05/08 01:38:16;;;;;;;11.57;8.63;;;;;;;;;;4969735;28;20188;-80
2022/05/08 01:40:43;;;;;;;14.63;9.07;;;;;;;;;;4966222;28;20227;-80
2022/05/08 01:43:10;;;;;;;17.35;9.50;;;;;;;;;;4981132;28;20205;-80
2022/05/08 01:45:36;;;;;;;17.02;10.25;;;;;;;;;;4990706;28;20194;-80
2022/05/08 01:50:48;;;;;;;13.30;8.52;;;;;;;;;;4986975;28;20293;-81
2022/05/08 01:53:14;;;;;;;13.90;9.15;;;;;;;;;;4972804;28;20275;-81
2022/05/08 01:55:40;;;;;;;11.45;9.10;;;;;;;;;;4972669;28;20179;-81
2022/05/08 01:58:06;;;;;;;12.50;8.70;;;;;;;;;;4968956;28;20181;-81
2022/05/08 02:00:33;;;;;;;14.43;9.25;;;;;;;;;;4970569;28;20222;-80
2022/05/08 02:03:00;;;;;;;13.15;8.82;;;;;;;;;;4971652;28;20191;-81
2022/05/08 02:05:28;;;;;;;11.73;8.82;;;;;;;;;;4986969;28;20219;-80
2022/05/08 02:07:54;;;;;;;11.73;9.18;;;;;;;;;;4972295;28;20186;-80
2022/05/08 02:10:20;;;;;;;15.02;10.15;;;;;;;;;;4969445;28;20239;-81
2022/05/08 02:12:46;;;;;;;13.55;10.00;;;;;;;;;;4967763;28;20184;-81
2022/05/08 02:15:14;;;;;;;13.75;10.68;;;;;;;;;;4972979;28;20264;-81
2022/05/08 02:17:40;;;;;;;13.52;9.15;;;;;;;;;;4995013;28;20210;-81
2022/05/08 02:20:08;;;;;;;12.38;10.10;;;;;;;;;;5002251;28;20186;-81
2022/05/08 02:22:34;;;;;;;15.73;9.20;;;;;;;;;;4987197;28;20224;-81
2022/05/08 02:25:00;;;;;;;15.20;9.90;;;;;;;;;;5002230;28;20186;-81
2022/05/08 02:27:26;;;;;;;18.52;11.15;;;;;;;;;;5004963;28;20171;-81
2022/05/08 02:29:52;;;;;;;14.57;10.10;;;;;;;;;;4984406;28;20203;-81
2022/05/08 02:32:19;;;;;;;18.17;10.15;;;;;;;;;;5001913;28;20179;-81
2022/05/08 02:34:45;;;;;;;13.48;9.93;;;;;;;;;;5000698;28;20187;-81
2022/05/08 02:37:12;;;;;;;21.05;12.23;;;;;;;;;;4985201;28;20207;-81
2022/05/08 02:39:38;;;;;;;17.10;11.70;;;;;;;;;;4986082;28;20206;-80
2022/05/08 02:42:04;;;;;;;20.23;12.93;;;;;;;;;;5003093;28;20183;-81
2022/05/08 02:44:30;;;;;;;18.25;13.15;;;;;;;;;;5001732;28;20179;-81
2022/05/08 02:46:56;;;;;;;19.37;11.90;;;;;;;;;;5001319;28;20194;-80
2022/05/08 02:49:22;;;;;;;21.77;12.90;;;;;;;;;;5000829;28;20481;-81
2022/05/08 02:51:49;;;;;;;17.73;11.23;;;;;;;;;;5002905;28;20521;-81
2022/05/08 02:54:15;;;;;;;19.20;11.70;;;;;;;;;;5004012;28;20531;-81
2022/05/08 02:59:25;;;;;;;20.48;13.82;;;;;;;;;;5002770;28;20469;-81
2022/05/08 03:01:51;;;;;;;23.97;14.40;;;;;;;;;;5000948;28;20194;-80
2022/05/08 03:04:18;;;;;;;26.40;17.17;;;;;;;;;;4984841;28;20446;-81
2022/05/08 03:06:43;;;;;;;25.50;14.27;;;;;;;;;;5002458;28;20183;-80
2022/05/08 03:09:09;;;;;;;26.05;17.55;;;;;;;;;;5002860;28;20230;-80
2022/05/08 03:11:36;;;;;;;23.10;15.57;;;;;;;;;;4985151;28;20191;-81
2022/05/08 03:14:02;;;;;;;24.67;16.73;;;;;;;;;;4983636;28;20438;-80
2022/05/08 03:16:29;;;;;;;25.05;17.02;;;;;;;;;;4986102;28;20198;-81
2022/05/08 03:18:55;;;;;;;25.23;17.70;;;;;;;;;;4984840;28;20545;-80
2022/05/08 03:21:22;;;;;;;27.48;18.75;;;;;;;;;;4986683;28;20187;-80
2022/05/08 03:23:48;;;;;;;27.55;17.48;;;;;;;;;;4999987;28;20183;-80
2022/05/08 03:26:14;;;;;;;26.17;18.45;;;;;;;;;;5000131;28;20663;-79
2022/05/08 03:28:41;;;;;;;31.10;18.77;;;;;;;;;;5000712;28;20262;-80
2022/05/08 03:31:07;;;;;;;23.55;16.50;;;;;;;;;;4999995;28;20235;-80
2022/05/08 03:33:34;;;;;;;29.38;19.35;;;;;;;;;;5002617;28;20203;-81
2022/05/08 03:36:00;;;;;;;35.03;18.48;;;;;;;;;;5001274;28;20282;-80
2022/05/08 03:38:30;;;;;;;29.80;19.60;;;;;;;;;;5000498;28;20680;-81
2022/05/08 03:40:56;;;;;;;32.05;18.65;;;;;;;;;;4985104;28;20246;-81
2022/05/08 03:43:22;;;;;;;30.52;19.70;;;;;;;;;;5001142;28;20218;-80
2022/05/08 03:45:49;;;;;;;26.35;19.15;;;;;;;;;;5002219;28;20233;-80
2022/05/08 03:48:15;;;;;;;29.85;18.17;;;;;;;;;;5001510;28;20179;-80
2022/05/08 03:50:41;;;;;;;29.17;18.65;;;;;;;;;;5000695;28;20210;-81
2022/05/08 03:53:08;;;;;;;35.72;21.23;;;;;;;;;;5000682;28;20210;-81
2022/05/08 03:55:34;;;;;;;31.15;20.38;;;;;;;;;;4985599;28;20660;-81
2022/05/08 03:58:00;;;;;;;29.60;19.37;;;;;;;;;;5000533;28;20333;-82
2022/05/08 04:00:27;;;;;;;32.50;20.10;;;;;;;;;;5003698;28;20434;-82
2022/05/08 04:02:53;;;;;;;32.15;20.88;;;;;;;;;;5000256;28;20861;-80
2022/05/08 04:05:19;;;;;;;37.60;22.30;;;;;;;;;;4984945;28;20190;-80
2022/05/08 04:07:46;;;;;;;31.15;19.92;;;;;;;;;;5001370;28;20186;-81
2022/05/08 04:10:15;;;;;;;31.52;22.30;;;;;;;;;;4985340;28;20495;-81
2022/05/08 04:12:44;;;;;;;39.03;21.83;;;;;;;;;;5002627;28;20179;-80
2022/05/08 04:17:55;;;;;;;36.55;22.48;;;;;;;;;;5000348;28;20257;-81
2022/05/08 04:20:22;;;;;;;31.47;20.73;;;;;;;;;;5000325;28;20202;-80
2022/05/08 04:25:32;;;;;;;38.28;22.08;;;;;;;;;;5000876;28;20206;-80
2022/05/08 04:27:58;;;;;;;40.80;23.73;;;;;;;;;;4985023;28;20184;-81
2022/05/08 04:30:25;;;;;;;33.95;22.10;;;;;;;;;;4986504;28;20458;-81
2022/05/08 04:32:51;;;;;;;38.63;22.98;;;;;;;;;;4999730;28;20663;-82
2022/05/08 04:35:17;;;;;;;33.88;21.15;;;;;;;;;;5001489;28;20195;-80
2022/05/08 04:37:43;;;;;;;35.63;22.77;;;;;;;;;;5003431;28;20219;-80
2022/05/08 04:40:09;;;;;;;32.00;22.10;;;;;;;;;;5003439;28;20188;-81
2022/05/08 04:42:35;;;;;;;38.33;22.17;;;;;;;;;;4988224;28;20446;-80
2022/05/08 04:45:01;;;;;;;33.57;21.40;;;;;;;;;;5005435;28;20190;-81
2022/05/08 04:47:28;;;;;;;32.00;21.87;;;;;;;;;;5005186;28;20441;-80
2022/05/08 04:49:54;;;;;;;33.30;22.40;;;;;;;;;;4988908;28;20967;-80
2022/05/08 04:52:20;;;;;;;34.55;22.25;;;;;;;;;;5003035;28;20187;-81
2022/05/08 04:54:46;;;;;;;33.13;21.30;;;;;;;;;;4987808;28;20178;-80
2022/05/08 04:57:12;;;;;;;32.30;20.63;;;;;;;;;;5005457;28;20895;-81
2022/05/08 04:59:39;;;;;;;34.13;20.10;;;;;;;;;;5004065;28;20449;-80
2022/05/08 05:02:08;;;;;;;32.75;20.23;;;;;;;;;;5002461;28;20452;-80
2022/05/08 05:04:34;;;;;;;37.20;23.38;;;;;;;;;;4987737;28;20202;-80
2022/05/08 05:07:00;;;;;;;36.13;22.02;;;;;;;;;;4988117;28;20188;-81
2022/05/08 05:09:26;;;;;;;34.30;21.98;;;;;;;;;;5002302;28;20222;-81
2022/05/08 05:11:52;;;;;;;31.95;20.90;;;;;;;;;;4985614;28;20629;-80
2022/05/08 05:14:18;;;;;;;30.47;19.80;;;;;;;;;;5003232;28;20189;-81
2022/05/08 05:16:44;;;;;;;35.23;23.57;;;;;;;;;;4987881;28;20438;-81
2022/05/08 05:19:10;;;;;;;38.08;23.65;;;;;;;;;;4986160;28;20442;-81
2022/05/08 05:21:36;;;;;;;36.75;23.63;;;;;;;;;;5003902;28;20198;-81
2022/05/08 05:24:02;;;;;;;32.77;21.97;;;;;;;;;;4981649;28;20243;-83
2022/05/08 05:26:28;;;;;;;44.23;23.50;;;;;;;;;;4985705;28;20437;-81
2022/05/08 05:28:54;;;;;;;40.70;22.13;;;;;;;;;;4987590;28;20939;-81
2022/05/08 05:31:20;;;;;;;35.80;22.58;;;;;;;;;;5002252;28;20706;-80
2022/05/08 05:33:46;;;;;;;34.30;22.05;;;;;;;;;;4986934;28;20238;-80
2022/05/08 05:36:12;;;;;;;37.53;22.95;;;;;;;;;;4974800;28;20194;-81
2022/05/08 05:38:39;;;;;;;36.53;22.17;;;;;;;;;;4992253;28;20188;-81
2022/05/08 05:41:05;;;;;;;35.42;22.77;;;;;;;;;;5001921;28;20187;-81
2022/05/08 05:43:31;;;;;;;39.63;23.33;;;;;;;;;;5001520;28;20187;-81
2022/05/08 05:48:42;;;;;;;37.33;22.45;;;;;;;;;;5001530;28;20206;-82
2022/05/08 05:51:08;;;;;;;36.40;21.00;;;;;;;;;;5003361;28;20207;-83
2022/05/08 05:53:35;;;;;;;31.53;22.03;;;;;;;;;;4985576;28;20183;-83
2022/05/08 05:56:01;;;;;;;37.70;21.80;;;;;;;;;;5003917;28;20717;-83
2022/05/08 05:58:27;;;;;;;34.53;20.85;;;;;;;;;;5001876;28;20189;-82
2022/05/08 06:00:53;;;;;;;36.72;21.05;;;;;;;;;;5003138;28;20186;-83
2022/05/08 06:03:19;;;;;;;37.45;23.88;;;;;;;;;;4973853;28;20184;-82
2022/05/08 06:05:46;;;;;;;38.17;22.40;;;;;;;;;;5002185;28;20195;-84
2022/05/08 06:08:12;;;;;;;33.47;21.85;;;;;;;;;;5002161;28;20243;-81
2022/05/08 06:10:38;;;;;;;44.45;25.60;;;;;;;;;;4987471;28;20218;-83
2022/05/08 06:13:05;;;;;;;36.63;22.40;;;;;;;;;;5003058;28;20182;-83
2022/05/08 06:15:31;;;;;;;35.03;21.90;;;;;;;;;;5005929;28;20950;-84
2022/05/08 06:17:57;;;;;;;36.53;21.17;;;;;;;;;;5003430;28;20218;-84
2022/05/08 06:20:23;;;;;;;38.45;21.75;;;;;;;;;;4986046;28;20230;-83
2022/05/08 06:22:49;;;;;;;39.22;21.73;;;;;;;;;;4984536;28;20206;-83
2022/05/08 06:25:15;;;;;;;37.42;22.52;;;;;;;;;;4987866;28;20183;-83
2022/05/08 06:27:41;;;;;;;37.15;21.67;;;;;;;;;;4985945;28;20206;-83
2022/05/08 06:30:07;;;;;;;40.40;23.33;;;;;;;;;;4986845;28;20403;-83
2022/05/08 06:32:35;;;;;;;37.25;23.52;;;;;;;;;;5002252;28;20179;-80
2022/05/08 06:35:01;;;;;;;35.28;21.05;;;;;;;;;;5001082;28;20191;-83
2022/05/08 06:37:27;;;;;;;33.50;21.23;;;;;;;;;;4986857;28;20680;-83
2022/05/08 06:39:53;;;;;;;36.87;22.07;;;;;;;;;;5002780;28;20218;-83
2022/05/08 06:42:19;;;;;;;40.73;20.47;;;;;;;;;;4973069;28;20450;-83
2022/05/08 06:44:45;;;;;;;35.93;23.50;;;;;;;;;;4999366;28;20444;-82
2022/05/08 06:47:11;;;;;;;37.90;21.25;;;;;;;;;;5001863;28;20443;-83
2022/05/08 06:49:37;;;;;;;33.03;20.40;;;;;;;;;;4999888;28;20203;-82
2022/05/08 06:52:03;;;;;;;31.05;21.00;;;;;;;;;;4984501;28;20841;-85
2022/05/08 06:54:29;;;;;;;28.95;19.27;;;;;;;;;;5005531;28;20234;-82
2022/05/08 06:56:56;;;;;;;33.72;21.10;;;;;;;;;;5001709;28;20186;-83
2022/05/08 07:02:07;;;;;;;35.88;23.05;;;;;;;;;;4993950;28;20202;-82
2022/05/08 07:04:33;;;;;;;35.13;20.77;;;;;;;;;;5000399;28;20278;-82
2022/05/08 07:07:00;;;;;;;34.77;21.40;;;;;;;;;;4985655;28;20188;-85
2022/05/08 07:09:26;;;;;;;33.05;20.55;;;;;;;;;;4998171;28;20471;-81
2022/05/08 07:11:52;;;;;;;36.38;21.00;;;;;;;;;;4994184;28;20194;-82
2022/05/08 07:14:18;;;;;;;31.45;20.30;;;;;;;;;;4999406;28;20270;-83
2022/05/08 07:16:45;;;;;;;33.15;20.00;;;;;;;;;;4996118;28;20179;-82
2022/05/08 07:19:11;;;;;;;35.35;20.30;;;;;;;;;;4994559;28;20246;-82
2022/05/08 07:21:37;;;;;;;36.10;20.10;;;;;;;;;;4985392;28;20198;-82
2022/05/08 07:24:03;;;;;;;35.50;22.10;;;;;;;;;;5000459;28;20541;-82
2022/05/08 07:26:29;;;;;;;36.75;21.77;;;;;;;;;;4985565;28;20199;-83
2022/05/08 07:28:55;;;;;;;29.80;18.60;;;;;;;;;;4980817;28;20186;-82
2022/05/08 07:31:21;;;;;;;31.95;19.85;;;;;;;;;;4994019;28;20195;-85
2022/05/08 07:36:12;;;;;;;30.80;18.67;;;;;;;;;;4982938;28;20182;-82
2022/05/08 07:36:33;;;;;;;35.83;19.83;;;;;;;;;;4996133;28;20415;-81
2022/05/08 07:38:59;;;;;;;30.27;20.00;;;;;;;;;;4996780;28;20262;-82
2022/05/08 07:41:25;;;;;;;32.30;22.73;;;;;;;;;;4996271;28;20472;-83
2022/05/08 07:43:51;;;;;;;37.80;21.70;;;;;;;;;;4993238;28;20430;-84
2022/05/08 07:46:17;;;;;;;29.37;19.00;;;;;;;;;;4981352;28;20435;-80
2022/05/08 07:48:45;;;;;;;33.40;20.30;;;;;;;;;;4979833;28;20505;-80
2022/05/08 07:51:11;;;;;;;34.15;21.35;;;;;;;;;;4984481;28;20473;-80
2022/05/08 07:53:37;;;;;;;33.90;21.45;;;;;;;;;;4984174;28;20185;-80
2022/05/08 07:56:03;;;;;;;31.60;19.83;;;;;;;;;;4997050;28;20190;-80
2022/05/08 07:58:32;;;;;;;34.17;21.85;;;;;;;;;;4997156;28;20430;-81
2022/05/08 08:00:59;;;;;;;34.10;20.20;;;;;;;;;;4999706;28;20191;-80
2022/05/08 08:03:26;;;;;;;33.20;20.35;;;;;;;;;;4999652;28;20187;-80
2022/05/08 08:05:53;;;;;;;37.65;22.05;;;;;;;;;;4994476;28;20246;-80
2022/05/08 08:08:22;;;;;;;35.55;22.15;;;;;;;;;;4984785;28;20189;-79
2022/05/08 08:10:49;;;;;;;33.65;20.48;;;;;;;;;;5000647;28;20262;-81
2022/05/08 08:13:15;;;;;;;31.85;20.38;;;;;;;;;;4994349;28;20191;-81
2022/05/08 08:15:44;;;;;;;32.97;20.05;;;;;;;;;;5002530;28;20215;-80
2022/05/08 08:18:11;;;;;;;33.00;19.52;;;;;;;;;;5001681;28;20607;-81
2022/05/08 08:20:37;;;;;;;37.40;20.20;;;;;;;;;;4999844;28;20199;-80
2022/05/08 08:23:03;;;;;;;34.97;20.40;;;;;;;;;;5000869;28;20210;-82
2022/05/08 08:25:29;;;;;;;37.25;21.92;;;;;;;;;;5000286;28;20439;-80
2022/05/08 08:27:55;;;;;;;32.40;20.92;;;;;;;;;;4983662;28;20180;-82
2022/05/08 08:30:21;;;;;;;38.28;22.50;;;;;;;;;;4973541;28;20200;-81
2022/05/08 08:32:48;;;;;;;34.78;21.95;;;;;;;;;;4982158;28;20197;-81
2022/05/08 08:35:15;;;;;;;35.83;19.92;;;;;;;;;;4998338;28;20216;-80
2022/05/08 08:37:41;;;;;;;31.48;20.00;;;;;;;;;;5000024;28;20188;-80
2022/05/08 08:40:07;;;;;;;32.75;20.30;;;;;;;;;;4982295;28;20188;-80
2022/05/08 08:42:33;;;;;;;33.42;20.73;;;;;;;;;;4985807;28;20259;-80
2022/05/08 08:47:52;;;;;;;30.48;20.55;;;;;;;;;;4998634;28;20238;-81
2022/05/08 08:50:18;;;;;;;30.75;20.00;;;;;;;;;;4998921;28;20203;-81
2022/05/08 08:52:48;;;;;;;36.17;23.02;;;;;;;;;;4999908;28;20189;-81
2022/05/08 08:55:15;;;;;;;30.65;18.98;;;;;;;;;;4999726;28;20184;-81
2022/05/08 08:57:41;;;;;;;34.03;18.27;;;;;;;;;;5002198;28;20185;-81
2022/05/08 09:00:08;;;;;;;35.45;21.15;;;;;;;;;;5000682;28;20258;-80
2022/05/08 09:02:34;;;;;;;28.42;19.33;;;;;;;;;;5001253;28;20185;-80
2022/05/08 09:05:04;;;;;;;38.72;21.42;;;;;;;;;;4985008;28;20220;-80
2022/05/08 09:07:39;;;;;;;39.20;22.80;;;;;;;;;;4985166;28;20184;-81
2022/05/08 09:10:08;;;;;;;37.88;21.35;;;;;;;;;;4984236;28;20275;-81
2022/05/08 09:12:34;;;;;;;33.00;20.25;;;;;;;;;;5002801;28;20171;-81
2022/05/08 09:15:00;;;;;;;27.60;18.88;;;;;;;;;;5000654;28;20180;-81
2022/05/08 09:17:43;;;;;;;32.03;19.23;;;;;;;;;;4985494;28;20280;-81
2022/05/08 09:20:28;;;;;;;33.17;20.70;;;;;;;;;;5000288;28;20236;-81
2022/05/08 09:23:00;;;;;;;30.38;20.15;;;;;;;;;;4988744;28;20202;-80
2022/05/08 09:25:50;;;;;;;40.08;22.40;;;;;;;;;;5003090;28;20186;-80
2022/05/08 09:28:17;;;;;;;37.58;22.55;;;;;;;;;;4977621;28;20629;-81
2022/05/08 09:30:56;;;;;;;33.30;20.08;;;;;;;;;;5005525;28;20201;-81
2022/05/08 09:33:30;;;;;;;35.38;19.88;;;;;;;;;;5004598;28;20640;-81
2022/05/08 09:35:57;;;;;;;34.53;21.10;;;;;;;;;;4985893;28;20182;-80
2022/05/08 09:38:28;;;;;;;32.70;19.85;;;;;;;;;;5002824;28;20182;-81
2022/05/08 09:41:08;;;;;;;42.00;22.85;;;;;;;;;;5002758;28;20197;-81
2022/05/08 09:43:34;;;;;;;38.17;22.92;;;;;;;;;;4987827;28;20269;-80
2022/05/08 09:46:01;;;;;;;37.67;24.63;;;;;;;;;;5003461;28;20209;-81
2022/05/08 09:48:28;;;;;;;39.33;23.42;;;;;;;;;;5006991;28;20185;-80
2022/05/08 09:50:57;;;;;;;36.20;21.23;;;;;;;;;;4987156;28;20229;-82
2022/05/08 09:53:24;;;;;;;35.38;19.38;;;;;;;;;;4988247;28;20183;-86
2022/05/08 09:55:50;;;;;;;39.90;21.55;;;;;;;;;;4988206;28;20212;-81
2022/05/08 09:58:16;;;;;;;35.03;21.30;;;;;;;;;;4986432;28;20188;-81
2022/05/08 10:00:45;;;;;;;40.30;21.88;;;;;;;;;;4987313;28;20221;-81
2022/05/08 10:03:11;;;;;;;40.30;23.98;;;;;;;;;;4988359;28;20183;-81
2022/05/08 10:05:37;;;;;;;38.22;21.27;;;;;;;;;;5002277;28;20186;-81
2022/05/08 10:08:04;;;;;;;37.38;21.73;;;;;;;;;;4987779;28;20179;-82
2022/05/08 10:13:55;;;;;;;32.47;19.60;;;;;;;;;;4988785;28;20191;-80
2022/05/08 10:16:40;;;;;;;32.50;20.30;;;;;;;;;;4972401;28;20207;-81
2022/05/08 10:19:19;;;;;;;39.65;24.70;;;;;;;;;;4969092;28;20274;-82
2022/05/08 10:21:57;;;;;;;36.95;22.85;;;;;;;;;;5004520;28;20262;-82
2022/05/08 10:24:39;;;;;;;38.30;20.85;;;;;;;;;;5005571;28;20178;-83
2022/05/08 10:27:11;;;;;;;35.05;22.85;;;;;;;;;;5004744;28;20206;-82
2022/05/08 10:29:38;;;;;;;37.72;22.65;;;;;;;;;;4987084;28;20206;-81
2022/05/08 10:32:06;;;;;;;37.03;22.98;;;;;;;;;;4987146;28;20194;-81
2022/05/08 10:34:37;;;;;;;44.10;22.63;;;;;;;;;;4984591;28;20798;-80
2022/05/08 10:37:12;;;;;;;33.92;22.13;;;;;;;;;;4989084;28;20183;-82
2022/05/08 10:39:38;;;;;;;37.00;22.45;;;;;;;;;;4998803;28;20190;-81
2022/05/08 10:42:04;;;;;;;34.58;20.48;;;;;;;;;;5000165;28;20194;-82
2022/05/08 10:44:34;;;;;;;33.40;22.92;;;;;;;;;;4997310;28;20184;-82
2022/05/08 10:47:18;;;;;;;32.67;22.45;;;;;;;;;;4992056;28;20198;-81
2022/05/08 10:49:45;;;;;;;33.30;21.60;;;;;;;;;;4983065;28;20211;-81
2022/05/08 10:52:11;;;;;;;31.35;21.65;;;;;;;;;;4984573;28;20237;-82
2022/05/08 10:54:37;;;;;;;32.78;22.95;;;;;;;;;;4990004;28;20194;-81
2022/05/08 10:57:03;;;;;;;30.88;21.55;;;;;;;;;;4984374;28;20179;-83
2022/05/08 10:59:45;;;;;;;33.45;20.55;;;;;;;;;;4999059;28;20246;-82
2022/05/08 11:02:11;;;;;;;31.85;20.98;;;;;;;;;;4985250;28;20206;-82
2022/05/08 11:04:53;;;;;;;32.15;21.42;;;;;;;;;;4983488;28;20206;-83
2022/05/08 11:07:22;;;;;;;32.30;20.92;;;;;;;;;;4988601;28;20195;-83
2022/05/08 11:09:48;;;;;;;28.48;21.25;;;;;;;;;;5000845;28;20198;-82
2022/05/08 11:12:14;;;;;;;29.10;19.73;;;;;;;;;;5002837;28;20563;-84
2022/05/08 11:14:40;;;;;;;34.17;21.50;;;;;;;;;;4983778;28;20183;-83
2022/05/08 11:17:17;;;;;;;34.03;19.92;;;;;;;;;;5000888;28;20215;-81
2022/05/08 11:19:52;;;;;;;26.10;19.80;;;;;;;;;;4985911;28;20564;-82
2022/05/08 11:22:18;;;;;;;29.83;21.77;;;;;;;;;;5000626;28;20195;-82
2022/05/08 11:24:49;;;;;;;31.17;21.75;;;;;;;;;;4984946;28;20188;-82
2022/05/08 11:27:16;;;;;;;26.65;20.67;;;;;;;;;;4980585;28;20182;-82
2022/05/08 11:29:51;;;;;;;23.60;18.90;;;;;;;;;;4979095;28;20304;-80
2022/05/08 11:38:03;;;;;;;26.05;18.40;;;;;;;;;;4998275;28;20222;-78
2022/05/08 11:40:30;;;;;;;26.48;19.77;;;;;;;;;;4999247;28;20266;-81
2022/05/08 11:42:56;;;;;;;30.52;20.90;;;;;;;;;;4998260;28;20204;-85
2022/05/08 11:45:22;;;;;;;24.55;18.23;;;;;;;;;;5000232;28;20204;-81
2022/05/08 11:47:53;;;;;;;26.45;18.40;;;;;;;;;;4999805;28;20216;-84
2022/05/08 11:50:20;;;;;;;26.17;18.70;;;;;;;;;;5002169;28;20196;-79
2022/05/08 11:52:46;;;;;;;24.30;18.00;;;;;;;;;;4985498;28;20215;-80
2022/05/08 11:55:13;;;;;;;21.40;17.55;;;;;;;;;;4985162;28;20177;-77
2022/05/08 11:57:45;;;;;;;20.83;16.50;;;;;;;;;;4985461;28;20176;-81
2022/05/08 12:00:13;;;;;;;20.75;17.15;;;;;;;;;;5002207;28;20177;-83
2022/05/08 12:02:41;;;;;;;21.00;16.70;;;;;;;;;;4982617;28;20198;-82
2022/05/08 12:05:07;;;;;;;20.98;17.60;;;;;;;;;;4995021;28;20586;-83
2022/05/08 12:07:40;;;;;;;21.92;17.95;;;;;;;;;;5001498;28;20177;-82
2022/05/08 12:10:06;;;;;;;19.58;15.52;;;;;;;;;;4984516;28;20217;-81
2022/05/08 12:12:33;;;;;;;19.33;16.95;;;;;;;;;;4985770;28;20278;-82
2022/05/08 12:15:03;;;;;;;23.70;18.20;;;;;;;;;;5000029;28;20171;-82
2022/05/08 12:17:50;;;;;;;21.97;17.63;;;;;;;;;;4999097;28;20447;-82
2022/05/08 12:20:19;;;;;;;19.53;14.90;;;;;;;;;;4993706;28;20973;-80
2022/05/08 12:22:56;;;;;;;17.03;15.37;;;;;;;;;;5000145;28;20455;-81
2022/05/08 12:25:22;;;;;;;18.03;15.27;;;;;;;;;;5000542;28;20429;-81
2022/05/08 12:27:48;;;;;;;16.90;15.10;;;;;;;;;;5001173;28;20480;-82
2022/05/08 12:30:15;;;;;;;15.53;13.93;;;;;;;;;;5000777;28;20462;-82
2022/05/08 12:32:41;;;;;;;15.90;14.10;;;;;;;;;;5000588;28;20450;-83
2022/05/08 12:35:11;;;;;;;14.97;13.47;;;;;;;;;;4999615;28;20440;-81
2022/05/08 12:37:38;;;;;;;16.30;14.70;;;;;;;;;;5000018;28;20443;-83
2022/05/08 12:40:04;;;;;;;15.20;12.93;;;;;;;;;;4983943;28;20806;-84
2022/05/08 12:42:30;;;;;;;13.10;11.90;;;;;;;;;;4984854;28;20438;-83
2022/05/08 12:44:56;;;;;;;14.00;12.60;;;;;;;;;;4999666;28;20423;-83
2022/05/08 12:47:22;;;;;;;13.20;12.00;;;;;;;;;;4995369;28;20826;-82
2022/05/08 12:49:49;;;;;;;12.87;11.77;;;;;;;;;;4981471;28;20462;-81
2022/05/08 12:52:15;;;;;;;13.77;12.37;;;;;;;;;;4982743;28;20447;-83
2022/05/08 12:54:41;;;;;;;12.33;11.13;;;;;;;;;;4999463;28;20437;-84
2022/05/08 12:57:08;;;;;;;16.07;13.20;;;;;;;;;;4988773;28;20426;-86
2022/05/08 12:59:47;;;;;;;12.97;11.67;;;;;;;;;;4985255;28;20531;-83
2022/05/08 13:02:21;;;;;;;15.23;12.10;;;;;;;;;;4996759;28;20443;-81
2022/05/08 13:04:50;;;;;;;14.00;12.43;;;;;;;;;;4985572;28;20452;-83
2022/05/08 13:07:16;;;;;;;13.73;12.33;;;;;;;;;;4986455;28;20412;-81
2022/05/08 13:09:42;;;;;;;12.93;11.23;;;;;;;;;;5005342;28;20490;-85
2022/05/08 13:12:09;;;;;;;13.80;11.43;;;;;;;;;;5006635;28;20469;-84
2022/05/08 13:14:36;;;;;;;15.70;10.57;;;;;;;;;;5005016;28;20433;-86
2022/05/08 13:17:03;;;;;;;13.17;10.97;;;;;;;;;;4988620;28;20440;-84
2022/05/08 13:19:29;;;;;;;11.50;9.77;;;;;;;;;;5003077;28;20410;-87
2022/05/08 13:21:55;;;;;;;10.73;9.23;;;;;;;;;;5002243;28;20417;-86
2022/05/08 13:24:22;;;;;;;10.33;9.33;;;;;;;;;;4985632;28;20804;-80
2022/05/08 13:26:47;;;;;;;8.63;7.67;;;;;;;;;;4995841;28;20417;-82
2022/05/08 13:29:13;;;;;;;9.43;7.60;;;;;;;;;;4987569;28;20478;-83
2022/05/08 13:31:41;;;;;;;8.83;7.13;;;;;;;;;;5002307;28;20407;-82
2022/05/08 13:34:07;;;;;;;9.17;8.20;;;;;;;;;;4987280;28;20409;-83
2022/05/08 13:36:34;;;;;;;9.20;8.17;;;;;;;;;;4988491;28;20450;-83
2022/05/08 13:38:59;;;;;;;10.80;7.90;;;;;;;;;;4986083;28;20437;-82
2022/05/08 13:41:26;;;;;;;9.03;7.60;;;;;;;;;;4997490;28;20448;-79
2022/05/08 13:43:52;;;;;;;8.07;6.80;;;;;;;;;;4999339;28;20462;-80
2022/05/08 13:46:18;;;;;;;8.10;6.13;;;;;;;;;;4994459;28;20418;-82
2022/05/08 13:48:44;;;;;;;9.13;6.47;;;;;;;;;;4985474;28;20414;-82
2022/05/08 13:51:11;;;;;;;8.73;7.73;;;;;;;;;;4988783;28;20437;-91
2022/05/08 13:53:37;;;;;;;7.60;6.03;;;;;;;;;;5002036;28;20409;-83
2022/05/08 13:56:04;;;;;;;9.70;6.57;;;;;;;;;;5004154;28;20430;-84
2022/05/08 13:58:31;;;;;;;8.93;6.20;;;;;;;;;;4988730;28;20497;-84
2022/05/08 14:00:57;;;;;;;8.53;7.27;;;;;;;;;;5003212;28;20445;-82
2022/05/08 14:03:23;;;;;;;7.50;5.60;;;;;;;;;;5005187;28;20401;-87
2022/05/08 14:05:50;;;;;;;8.00;6.70;;;;;;;;;;5002358;28;20504;-81
2022/05/08 14:08:16;;;;;;;8.63;5.37;;;;;;;;;;4986416;28;20413;-84
2022/05/08 14:10:43;;;;;;;6.23;5.00;;;;;;;;;;4987550;28;20437;-84
2022/05/08 14:13:09;;;;;;;6.33;5.33;;;;;;;;;;4985127;28;20450;-83
2022/05/08 14:15:37;;;;;;;7.80;5.30;;;;;;;;;;5005310;28;20443;-83
2022/05/08 14:18:03;;;;;;;7.50;6.23;;;;;;;;;;5004207;28;20439;-83
2022/05/08 14:20:30;;;;;;;9.97;6.77;;;;;;;;;;5002338;28;20458;-83
2022/05/08 14:22:56;;;;;;;8.80;6.80;;;;;;;;;;5001922;28;20964;-83
2022/05/08 14:25:22;;;;;;;8.63;5.37;;;;;;;;;;4987320;28;20535;-89
2022/05/08 14:27:49;;;;;;;7.27;5.57;;;;;;;;;;5004340;28;20974;-84
2022/05/08 14:30:15;;;;;;;6.90;6.00;;;;;;;;;;5004246;28;20757;-83
2022/05/08 14:36:01;;;;;;;10.90;8.07;;;;;;;;;;5001428;28;20434;-85
2022/05/08 14:38:28;;;;;;;8.43;6.70;;;;;;;;;;5001923;28;20507;-83
2022/05/08 14:40:54;;;;;;;9.20;5.63;;;;;;;;;;4987255;28;20941;-85
2022/05/08 14:43:21;;;;;;;12.93;5.70;;;;;;;;;;5001509;28;20872;-83
2022/05/08 14:45:47;;;;;;;9.50;6.03;;;;;;;;;;4986314;28;20414;-84
2022/05/08 14:48:13;;;;;;;8.73;5.03;;;;;;;;;;4987486;28;20445;-83
2022/05/08 14:50:40;;;;;;;7.40;4.73;;;;;;;;;;4986960;28;20466;-83
2022/05/08 14:53:10;;;;;;;8.40;5.40;;;;;;;;;;5001048;28;20442;-83